createdAt,value
2022-12-03T00:01:22.071Z,2.58
2022-12-03T00:03:50.186Z,2.57
2022-12-03T00:06:18.353Z,2.58
2022-12-03T00:08:46.657Z,2.57
2022-12-03T00:11:14.669Z,2.55
2022-12-03T00:13:42.693Z,2.57
2022-12-03T00:16:11.203Z,2.55
2022-12-03T00:18:39.219Z,2.56
2022-12-03T00:21:07.645Z,2.58
2022-12-03T00:23:41.555Z,2.59
2022-12-03T00:26:10.477Z,2.59
2022-12-03T00:28:39.044Z,2.57
2022-12-03T00:31:07.107Z,2.55
2022-12-03T00:33:35.278Z,2.55
2022-12-03T00:36:04.318Z,2.52
2022-12-03T00:38:32.239Z,2.52
2022-12-03T00:41:00.343Z,2.55
2022-12-03T00:43:28.298Z,2.56
2022-12-03T00:45:56.401Z,2.58
2022-12-03T00:48:24.568Z,2.61
2022-12-03T00:50:52.894Z,2.62
2022-12-03T00:53:21.139Z,2.62
2022-12-03T00:55:50.807Z,2.63
2022-12-03T00:58:19.366Z,2.63
2022-12-03T01:00:48.479Z,2.65
2022-12-03T01:03:17.540Z,2.64
2022-12-03T01:05:45.578Z,2.64
2022-12-03T01:08:13.737Z,2.64
2022-12-03T01:10:41.948Z,2.65
2022-12-03T01:13:10.191Z,2.66
2022-12-03T01:15:38.701Z,2.66
2022-12-03T01:18:06.826Z,2.68
2022-12-03T01:20:36.520Z,2.67
2022-12-03T01:23:05.329Z,2.67
2022-12-03T01:25:33.503Z,2.66
2022-12-03T01:28:01.561Z,2.65
2022-12-03T01:30:29.423Z,2.65
2022-12-03T01:32:57.346Z,2.67
2022-12-03T01:35:25.497Z,2.71
2022-12-03T01:37:53.493Z,2.75
2022-12-03T01:40:22.085Z,2.78
2022-12-03T01:42:50.097Z,2.79
2022-12-03T01:45:23.816Z,2.78
2022-12-03T01:47:51.961Z,2.78
2022-12-03T01:50:33.264Z,2.77
2022-12-03T01:53:04.700Z,2.73
2022-12-03T01:55:32.906Z,2.73
2022-12-03T01:58:02.397Z,2.75
2022-12-03T02:00:31.018Z,2.74
2022-12-03T02:03:11.495Z,2.75
2022-12-03T02:05:39.433Z,2.76
2022-12-03T02:08:30.734Z,2.76
2022-12-03T02:11:09.151Z,2.75
2022-12-03T02:13:37.972Z,2.74
2022-12-03T02:16:06.669Z,2.73
2022-12-03T02:18:35.651Z,2.74
2022-12-03T02:21:15.729Z,2.74
2022-12-03T02:23:44.392Z,2.72
2022-12-03T02:26:12.499Z,2.76
2022-12-03T02:28:40.914Z,2.79
2022-12-03T02:31:09.096Z,2.79
2022-12-03T02:33:37.248Z,2.81
2022-12-03T02:36:05.655Z,2.81
2022-12-03T02:38:35.869Z,2.83
2022-12-03T02:41:08.852Z,2.82
2022-12-03T02:43:37.146Z,2.80
2022-12-03T02:46:07.448Z,2.78
2022-12-03T02:48:38.793Z,2.77
2022-12-03T02:51:10.463Z,2.74
2022-12-03T02:53:44.630Z,2.71
2022-12-03T02:56:17.127Z,2.71
2022-12-03T02:58:48.908Z,2.71
2022-12-03T03:01:18.099Z,2.71
2022-12-03T03:03:48.824Z,2.72
2022-12-03T03:06:19.595Z,2.74
2022-12-03T03:08:49.051Z,2.74
2022-12-03T03:11:17.047Z,2.76
2022-12-03T03:13:45.030Z,2.78
2022-12-03T03:16:13.114Z,2.80
2022-12-03T03:18:41.595Z,2.81
2022-12-03T03:21:09.756Z,2.80
2022-12-03T03:23:37.892Z,2.80
2022-12-03T03:26:08.939Z,2.79
2022-12-03T03:28:44.833Z,2.79
2022-12-03T03:31:15.482Z,2.80
2022-12-03T03:33:47.078Z,2.81
2022-12-03T03:36:16.747Z,2.82
2022-12-03T03:38:45.061Z,2.81
2022-12-03T03:41:14.631Z,2.80
2022-12-03T03:43:44.377Z,2.77
2022-12-03T03:46:13.936Z,2.74
2022-12-03T03:48:43.900Z,2.71
2022-12-03T03:51:13.134Z,2.68
2022-12-03T03:53:45.524Z,2.67
2022-12-03T03:56:14.926Z,2.67
2022-12-03T03:58:43.026Z,2.67
2022-12-03T04:01:14.087Z,2.65
2022-12-03T04:03:42.267Z,2.65
2022-12-03T04:06:11.489Z,2.68
2022-12-03T04:08:40.511Z,2.68
2022-12-03T04:11:26.959Z,2.69
2022-12-03T04:13:55.187Z,2.68
2022-12-03T04:16:23.181Z,2.67
2022-12-03T04:18:51.277Z,2.66
2022-12-03T04:21:40.449Z,2.64
2022-12-03T04:24:10.985Z,2.61
2022-12-03T04:26:57.963Z,2.59
2022-12-03T04:29:26.031Z,2.58
2022-12-03T04:32:12.746Z,2.57
2022-12-03T04:34:59.468Z,2.57
2022-12-03T04:37:29.970Z,2.57
2022-12-03T04:39:57.919Z,2.57
2022-12-03T04:42:25.832Z,2.54
2022-12-03T04:44:54.052Z,2.49
2022-12-03T04:47:22.669Z,2.45
2022-12-03T04:49:51.769Z,2.40
2022-12-03T04:52:20.916Z,2.35
2022-12-03T04:54:50.547Z,2.29
2022-12-03T04:57:18.581Z,2.26
2022-12-03T04:59:46.994Z,2.24
2022-12-03T05:02:16.162Z,2.22
2022-12-03T05:04:44.927Z,2.22
2022-12-03T05:07:12.886Z,2.21
2022-12-03T05:09:40.806Z,2.22
2022-12-03T05:12:08.863Z,2.25
2022-12-03T05:14:36.853Z,2.23
2022-12-03T05:17:04.964Z,2.21
2022-12-03T05:19:52.434Z,2.18
2022-12-03T05:22:22.452Z,2.13
2022-12-03T05:24:50.544Z,2.09
2022-12-03T05:27:23.377Z,2.02
2022-12-03T05:29:53.039Z,1.96
2022-12-03T05:32:20.988Z,1.90
2022-12-03T05:34:49.093Z,1.85
2022-12-03T05:37:17.005Z,1.80
2022-12-03T05:39:45.008Z,1.75
2022-12-03T05:42:31.678Z,1.70
2022-12-03T05:45:00.396Z,1.62
2022-12-03T05:47:28.553Z,1.57
2022-12-03T05:49:56.522Z,1.51
2022-12-03T05:52:24.565Z,1.45
2022-12-03T05:54:53.257Z,1.38
2022-12-03T05:57:21.542Z,1.32
2022-12-03T05:59:49.808Z,1.29
2022-12-03T06:02:17.801Z,1.26
2022-12-03T06:04:46.080Z,1.24
2022-12-03T06:07:14.567Z,1.23
2022-12-03T06:09:42.810Z,1.22
2022-12-03T06:12:11.019Z,1.23
2022-12-03T06:14:38.999Z,1.22
2022-12-03T06:17:07.242Z,1.21
2022-12-03T06:19:35.236Z,1.22
2022-12-03T06:22:03.434Z,1.22
2022-12-03T06:24:31.916Z,1.21
2022-12-03T06:26:59.860Z,1.22
2022-12-03T06:29:28.138Z,1.24
2022-12-03T06:31:57.491Z,1.27
2022-12-03T06:34:25.444Z,1.29
2022-12-03T06:36:53.390Z,1.30
2022-12-03T06:39:22.849Z,1.32
2022-12-03T06:41:50.851Z,1.33
2022-12-03T06:44:18.911Z,1.37
2022-12-03T06:46:47.883Z,1.41
2022-12-03T06:49:15.816Z,1.41
2022-12-03T06:51:44.075Z,1.40
2022-12-03T06:54:12.525Z,1.42
2022-12-03T06:56:45.201Z,1.45
2022-12-03T06:59:14.371Z,1.49
2022-12-03T07:01:42.850Z,1.53
2022-12-03T07:04:11.091Z,1.60
2022-12-03T07:06:39.071Z,1.66
2022-12-03T07:09:07.083Z,1.74
2022-12-03T07:11:40.111Z,1.80
2022-12-03T07:14:11.063Z,1.86
2022-12-03T07:16:40.108Z,1.90
2022-12-03T07:19:08.143Z,1.90
2022-12-03T07:21:36.619Z,1.93
2022-12-03T07:24:06.115Z,1.99
2022-12-03T07:26:35.191Z,2.07
2022-12-03T07:29:03.467Z,2.13
2022-12-03T07:31:32.856Z,2.18
2022-12-03T07:34:02.160Z,2.22
2022-12-03T07:36:30.410Z,2.25
2022-12-03T07:38:58.632Z,2.28
2022-12-03T07:41:26.580Z,2.27
2022-12-03T07:43:54.616Z,2.26
2022-12-03T07:46:22.925Z,2.28
2022-12-03T07:48:51.702Z,2.27
2022-12-03T07:51:19.739Z,2.29
2022-12-03T07:53:49.758Z,2.35
2022-12-03T07:56:17.695Z,2.40
2022-12-03T07:58:45.656Z,2.45
2022-12-03T08:01:14.483Z,2.47
2022-12-03T08:03:44.537Z,2.52
2022-12-03T08:06:13.091Z,2.56
2022-12-03T08:08:41.164Z,2.61
2022-12-03T08:11:14.044Z,2.72
2022-12-03T08:13:42.539Z,2.86
2022-12-03T08:16:20.313Z,2.98
2022-12-03T08:18:50.965Z,3.06
2022-12-03T08:21:21.372Z,3.07
2022-12-03T08:23:49.362Z,3.14
2022-12-03T08:26:28.185Z,3.19
2022-12-03T08:28:56.188Z,3.07
2022-12-03T08:31:32.760Z,3.09
2022-12-03T08:34:19.119Z,3.00
2022-12-03T08:36:48.110Z,3.01
2022-12-03T08:39:28.279Z,3.01
2022-12-03T08:42:27.499Z,3.15
2022-12-03T08:44:58.192Z,3.16
2022-12-03T08:47:26.741Z,3.17
2022-12-03T08:50:00.453Z,3.25
2022-12-03T08:52:34.013Z,3.39
2022-12-03T08:55:41.259Z,3.54
2022-12-03T08:58:33.853Z,3.61
2022-12-03T09:01:11.088Z,3.65
2022-12-03T09:03:49.354Z,3.78
2022-12-03T09:06:18.419Z,3.84
2022-12-03T09:08:46.832Z,3.91
2022-12-03T09:11:16.989Z,4.00
2022-12-03T09:13:46.418Z,4.06
2022-12-03T09:16:14.972Z,4.08
2022-12-03T09:18:43.103Z,4.13
2022-12-03T09:21:11.577Z,4.17
2022-12-03T09:23:39.809Z,4.25
2022-12-03T09:26:07.894Z,4.31
2022-12-03T09:28:36.062Z,4.28
2022-12-03T09:31:04.255Z,4.07
2022-12-03T09:33:32.572Z,4.14
2022-12-03T09:36:00.966Z,4.26
2022-12-03T09:38:28.927Z,4.33
2022-12-03T09:40:56.935Z,4.35
2022-12-03T09:43:49.437Z,4.38
2022-12-03T09:46:15.063Z,4.19
2022-12-03T09:48:43.319Z,4.34
2022-12-03T09:51:11.637Z,4.35
2022-12-03T09:53:41.983Z,4.36
2022-12-03T09:56:18.483Z,4.38
2022-12-03T09:58:47.614Z,4.40
2022-12-03T10:01:16.716Z,4.38
2022-12-03T10:03:49.552Z,4.37
2022-12-03T10:06:23.141Z,4.34
2022-12-03T10:08:55.507Z,4.42
2022-12-03T10:11:25.802Z,4.45
2022-12-03T10:13:56.311Z,4.48
2022-12-03T10:16:26.721Z,4.40
2022-12-03T10:18:58.078Z,4.28
2022-12-03T10:21:38.875Z,4.36
2022-12-03T10:24:31.568Z,4.38
2022-12-03T10:27:05.080Z,4.46
2022-12-03T10:29:36.374Z,4.26
2022-12-03T10:32:12.896Z,4.27
2022-12-03T10:34:44.875Z,4.26
2022-12-03T10:37:21.643Z,4.28
2022-12-03T10:40:01.950Z,4.25
2022-12-03T10:42:33.495Z,4.20
2022-12-03T10:45:22.807Z,4.17
2022-12-03T10:48:03.470Z,4.17
2022-12-03T10:50:33.873Z,4.06
2022-12-03T10:53:03.283Z,4.05
2022-12-03T10:55:42.043Z,4.14
2022-12-03T10:58:22.717Z,4.14
2022-12-03T11:00:55.814Z,4.14
2022-12-03T11:03:27.025Z,4.11
2022-12-03T11:05:57.292Z,3.98
2022-12-03T11:08:32.011Z,4.02
2022-12-03T11:11:05.093Z,4.00
2022-12-03T11:13:35.161Z,3.92
2022-12-03T11:16:06.323Z,3.96
2022-12-03T11:18:39.737Z,3.83
2022-12-03T11:21:11.263Z,3.94
2022-12-03T11:23:51.740Z,4.02
2022-12-03T11:26:29.873Z,4.02
2022-12-03T11:29:00.212Z,3.95
2022-12-03T11:31:40.767Z,3.77
2022-12-03T11:34:29.405Z,3.87
2022-12-03T11:37:09.576Z,3.96
2022-12-03T11:39:50.814Z,4.02
2022-12-03T11:42:30.985Z,4.04
2022-12-03T11:45:11.384Z,4.09
2022-12-03T11:47:58.316Z,4.03
2022-12-03T11:50:40.195Z,3.93
2022-12-03T11:53:20.319Z,4.03
2022-12-03T11:56:06.578Z,4.05
2022-12-03T11:58:42.371Z,4.08
2022-12-03T12:01:11.708Z,4.01
2022-12-03T12:03:47.895Z,4.07
2022-12-03T12:06:21.887Z,4.13
2022-12-03T12:08:52.479Z,4.15
2022-12-03T12:11:21.210Z,4.17
2022-12-03T12:13:51.209Z,4.24
2022-12-03T12:16:39.160Z,4.25
2022-12-03T12:19:35.237Z,4.27
2022-12-03T12:22:16.131Z,4.20
2022-12-03T12:24:48.015Z,4.07
2022-12-03T12:27:31.343Z,4.08
2022-12-03T12:30:06.807Z,4.11
2022-12-03T12:33:00.589Z,4.08
2022-12-03T12:35:32.564Z,3.94
2022-12-03T12:38:06.642Z,4.03
2022-12-03T12:40:38.588Z,4.00
2022-12-03T12:43:29.664Z,3.73
2022-12-03T12:46:18.689Z,3.75
2022-12-03T12:48:50.305Z,3.66
2022-12-03T12:51:18.912Z,3.70
2022-12-03T12:53:47.997Z,3.87
2022-12-03T12:56:25.046Z,3.94
2022-12-03T12:58:53.596Z,3.82
2022-12-03T13:01:26.262Z,3.80
2022-12-03T13:03:54.839Z,3.81
2022-12-03T13:06:32.056Z,3.87
2022-12-03T13:09:04.456Z,3.94
2022-12-03T13:11:45.971Z,3.95
2022-12-03T13:14:20.336Z,4.03
2022-12-03T13:16:50.946Z,4.10
2022-12-03T13:19:30.325Z,4.12
2022-12-03T13:22:13.160Z,4.19
2022-12-03T13:24:48.517Z,4.15
2022-12-03T13:27:32.598Z,4.16
2022-12-03T13:30:15.759Z,4.09
2022-12-03T13:32:45.371Z,3.93
2022-12-03T13:35:23.039Z,4.06
2022-12-03T13:37:51.184Z,4.11
2022-12-03T13:40:34.875Z,4.00
2022-12-03T13:43:06.792Z,4.07
2022-12-03T13:45:43.045Z,4.09
2022-12-03T13:48:34.285Z,4.07
2022-12-03T13:51:33.481Z,4.01
2022-12-03T13:54:02.973Z,3.95
2022-12-03T13:56:32.999Z,4.02
2022-12-03T13:59:01.658Z,4.01
2022-12-03T14:01:30.614Z,3.95
2022-12-03T14:03:58.900Z,4.03
2022-12-03T14:06:27.097Z,3.97
2022-12-03T14:08:55.192Z,3.97
2022-12-03T14:11:41.565Z,3.91
2022-12-03T14:14:09.939Z,3.92
2022-12-03T14:16:38.149Z,3.92
2022-12-03T14:19:10.491Z,3.94
2022-12-03T14:21:38.588Z,3.93
2022-12-03T14:24:06.945Z,3.90
2022-12-03T14:26:35.262Z,3.76
2022-12-03T14:29:08.413Z,3.76
2022-12-03T14:31:37.162Z,3.80
2022-12-03T14:34:05.551Z,3.75
2022-12-03T14:36:33.527Z,3.75
2022-12-03T14:39:01.759Z,3.77
2022-12-03T14:41:49.610Z,3.77
2022-12-03T14:44:17.817Z,3.76
2022-12-03T14:46:47.525Z,3.65
2022-12-03T14:49:15.876Z,3.60
2022-12-03T14:51:44.387Z,3.57
2022-12-03T14:54:12.468Z,3.51
2022-12-03T14:56:40.705Z,3.44
2022-12-03T14:59:10.295Z,3.47
2022-12-03T15:01:38.507Z,3.37
2022-12-03T15:04:07.668Z,3.36
2022-12-03T15:06:35.838Z,3.31
2022-12-03T15:09:04.984Z,3.28
2022-12-03T15:11:34.334Z,3.30
2022-12-03T15:14:02.384Z,3.29
2022-12-03T15:16:30.476Z,3.32
2022-12-03T15:18:58.828Z,3.24
2022-12-03T15:21:29.105Z,3.27
2022-12-03T15:23:59.895Z,3.21
2022-12-03T15:26:28.668Z,3.19
2022-12-03T15:28:56.879Z,3.21
2022-12-03T15:31:24.937Z,3.20
2022-12-03T15:33:53.062Z,3.23
2022-12-03T15:36:21.164Z,3.29
2022-12-03T15:38:49.336Z,3.33
2022-12-03T15:41:22.139Z,3.34
2022-12-03T15:43:54.916Z,3.33
2022-12-03T15:46:23.345Z,3.35
2022-12-03T15:48:52.070Z,3.18
2022-12-03T15:51:20.336Z,3.08
2022-12-03T15:53:51.137Z,2.95
2022-12-03T15:56:19.478Z,3.02
2022-12-03T15:58:47.515Z,3.02
2022-12-03T16:01:18.818Z,3.03
2022-12-03T16:03:46.869Z,3.02
2022-12-03T16:06:14.941Z,3.04
2022-12-03T16:08:43.008Z,3.04
2022-12-03T16:11:11.777Z,3.05
2022-12-03T16:13:41.373Z,3.06
2022-12-03T16:16:09.368Z,3.07
2022-12-03T16:18:37.526Z,3.00
2022-12-03T16:21:05.508Z,3.02
2022-12-03T16:23:34.424Z,2.93
2022-12-03T16:26:05.123Z,2.85
2022-12-03T16:28:33.995Z,2.88
2022-12-03T16:31:02.180Z,2.85
2022-12-03T16:33:32.283Z,2.82
2022-12-03T16:36:00.253Z,2.81
2022-12-03T16:38:30.972Z,2.75
2022-12-03T16:40:59.070Z,2.73
2022-12-03T16:43:29.700Z,2.77
2022-12-03T16:46:20.982Z,2.66
2022-12-03T16:48:57.891Z,2.63
2022-12-03T16:51:27.649Z,2.61
2022-12-03T16:53:55.952Z,2.61
2022-12-03T16:56:24.936Z,2.59
2022-12-03T16:58:53.167Z,2.59
2022-12-03T17:01:23.530Z,2.54
2022-12-03T17:03:54.086Z,2.51
2022-12-03T17:06:22.079Z,2.47
2022-12-03T17:08:50.238Z,2.45
2022-12-03T17:11:18.476Z,2.48
2022-12-03T17:13:46.796Z,2.49
2022-12-03T17:16:15.005Z,2.47
2022-12-03T17:18:43.240Z,2.49
2022-12-03T17:21:11.287Z,2.48
2022-12-03T17:23:40.280Z,2.49
2022-12-03T17:26:09.270Z,2.50
2022-12-03T17:28:37.423Z,2.48
2022-12-03T17:31:05.654Z,2.46
2022-12-03T17:33:33.673Z,2.50
2022-12-03T17:36:01.770Z,2.45
2022-12-03T17:38:38.614Z,2.33
2022-12-03T17:41:07.578Z,2.36
2022-12-03T17:43:35.563Z,2.42
2022-12-03T17:46:05.163Z,2.45
2022-12-03T17:48:36.484Z,2.48
2022-12-03T17:51:05.303Z,2.45
2022-12-03T17:53:36.855Z,2.42
2022-12-03T17:56:05.307Z,2.46
2022-12-03T17:58:34.557Z,2.51
2022-12-03T18:01:03.439Z,2.51
2022-12-03T18:03:32.789Z,2.53
2022-12-03T18:06:01.525Z,2.53
2022-12-03T18:08:31.694Z,2.52
2022-12-03T18:10:59.704Z,2.47
2022-12-03T18:13:28.675Z,2.51
2022-12-03T18:15:58.436Z,2.52
2022-12-03T18:18:27.115Z,2.50
2022-12-03T18:20:55.281Z,2.49
2022-12-03T18:23:23.326Z,2.47
2022-12-03T18:25:51.755Z,2.43
2022-12-03T18:28:20.876Z,2.47
2022-12-03T18:30:52.806Z,2.38
2022-12-03T18:33:23.459Z,2.37
2022-12-03T18:35:57.264Z,2.30
2022-12-03T18:38:29.419Z,2.31
2022-12-03T18:40:58.972Z,2.37
2022-12-03T18:43:28.554Z,2.34
2022-12-03T18:45:57.151Z,2.28
2022-12-03T18:48:25.848Z,2.28
2022-12-03T18:50:54.813Z,2.24
2022-12-03T18:53:23.879Z,2.15
2022-12-03T18:55:52.628Z,2.23
2022-12-03T18:58:22.904Z,2.27
2022-12-03T19:00:53.607Z,2.29
2022-12-03T19:03:22.108Z,2.28
2022-12-03T19:05:52.941Z,2.31
2022-12-03T19:08:21.586Z,2.33
2022-12-03T19:11:00.248Z,2.27
2022-12-03T19:13:28.295Z,2.09
2022-12-03T19:15:56.336Z,2.17
2022-12-03T19:18:25.655Z,2.19
2022-12-03T19:20:54.581Z,2.26
2022-12-03T19:23:22.620Z,2.14
2022-12-03T19:26:02.809Z,2.23
2022-12-03T19:28:31.519Z,2.25
2022-12-03T19:31:02.132Z,2.24
2022-12-03T19:33:31.435Z,2.18
2022-12-03T19:36:00.500Z,2.25
2022-12-03T19:38:30.108Z,2.20
2022-12-03T19:41:06.603Z,2.28
2022-12-03T19:43:36.636Z,2.18
2022-12-03T19:46:10.500Z,2.23
2022-12-03T19:48:41.586Z,2.20
2022-12-03T19:51:33.049Z,2.17
2022-12-03T19:53:59.031Z,2.20
2022-12-03T19:56:28.292Z,2.20
2022-12-03T19:58:56.322Z,2.17
2022-12-03T20:01:27.897Z,2.19
2022-12-03T20:03:57.794Z,2.18
2022-12-03T20:06:29.935Z,2.13
2022-12-03T20:09:05.987Z,2.07
2022-12-03T20:11:35.593Z,2.04
2022-12-03T20:14:10.333Z,2.01
2022-12-03T20:16:38.945Z,1.92
2022-12-03T20:19:08.419Z,1.80
2022-12-03T20:21:38.113Z,1.81
2022-12-03T20:24:08.336Z,1.83
2022-12-03T20:26:36.316Z,1.82
2022-12-03T20:29:04.904Z,1.81
2022-12-03T20:31:33.576Z,1.72
2022-12-03T20:34:03.574Z,1.76
2022-12-03T20:36:32.799Z,1.75
2022-12-03T20:39:04.301Z,1.71
2022-12-03T20:41:34.834Z,1.75
2022-12-03T20:44:03.314Z,1.79
2022-12-03T20:46:32.074Z,1.65
2022-12-03T20:49:01.036Z,1.65
2022-12-03T20:51:30.898Z,1.66
2022-12-03T20:54:00.648Z,1.65
2022-12-03T20:56:35.983Z,1.62
2022-12-03T20:59:07.191Z,1.63
2022-12-03T21:01:36.429Z,1.63
2022-12-03T21:04:05.870Z,1.61
2022-12-03T21:06:36.236Z,1.63
2022-12-03T21:09:06.399Z,1.54
2022-12-03T21:11:36.093Z,1.58
2022-12-03T21:14:05.128Z,1.58
2022-12-03T21:19:24.009Z,1.67
2022-12-03T21:21:52.462Z,1.64
2022-12-03T21:24:20.923Z,1.62
2022-12-03T21:26:54.781Z,1.58
2022-12-03T21:29:23.282Z,1.58
2022-12-03T21:31:51.824Z,1.62
2022-12-03T21:34:20.487Z,1.54
2022-12-03T21:36:51.624Z,1.49
2022-12-03T21:39:19.662Z,1.52
2022-12-03T21:42:22.274Z,1.54
2022-12-03T21:44:38.642Z,1.48
2022-12-03T21:47:12.280Z,1.48
2022-12-03T21:49:42.362Z,1.45
2022-12-03T21:52:11.028Z,1.42
2022-12-03T21:54:40.454Z,1.47
2022-12-03T21:57:08.591Z,1.48
2022-12-03T21:59:38.295Z,1.53
2022-12-03T22:02:07.095Z,1.57
2022-12-03T22:04:35.679Z,1.58
2022-12-03T22:07:05.975Z,1.58
2022-12-03T22:09:34.059Z,1.61
2022-12-03T22:12:02.109Z,1.63
2022-12-03T22:14:31.736Z,1.62
2022-12-03T22:17:00.204Z,1.60
2022-12-03T22:19:28.391Z,1.64
2022-12-03T22:21:56.344Z,1.60
2022-12-03T22:24:24.299Z,1.63
2022-12-03T22:26:55.023Z,1.58
2022-12-03T22:29:23.017Z,1.58
2022-12-03T22:31:51.627Z,1.51
2022-12-03T22:34:20.163Z,1.58
2022-12-03T22:36:49.497Z,1.52
2022-12-03T22:39:17.633Z,1.49
2022-12-03T22:41:45.788Z,1.50
2022-12-03T22:44:13.818Z,1.51
2022-12-03T22:46:41.971Z,1.39
2022-12-03T22:49:11.976Z,1.44
2022-12-03T22:51:40.038Z,1.43
2022-12-03T22:54:10.736Z,1.44
2022-12-03T22:56:38.844Z,1.43
2022-12-03T22:59:07.308Z,1.41
2022-12-03T23:01:38.045Z,1.29
2022-12-03T23:04:08.044Z,1.36
2022-12-03T23:06:37.464Z,1.39
2022-12-03T23:09:07.173Z,1.42
2022-12-03T23:11:35.653Z,1.33
2022-12-03T23:14:03.749Z,1.16
2022-12-03T23:16:33.633Z,1.14
2022-12-03T23:19:02.731Z,1.18
2022-12-03T23:21:35.118Z,1.15
2022-12-03T23:24:05.897Z,1.14
2022-12-03T23:26:36.772Z,1.22
2022-12-03T23:29:06.120Z,1.20
2022-12-03T23:31:34.806Z,1.16
2022-12-03T23:34:03.105Z,1.17
2022-12-03T23:36:33.437Z,1.17
2022-12-03T23:39:02.247Z,1.13
2022-12-03T23:41:30.201Z,1.13
2022-12-03T23:43:58.239Z,0.99
2022-12-03T23:46:28.382Z,0.88
2022-12-03T23:48:59.529Z,0.81
2022-12-03T23:51:29.223Z,0.77
2022-12-03T23:53:57.848Z,0.85
2022-12-03T23:56:30.830Z,0.88
2022-12-03T23:58:59.221Z,0.90
